Time;durP1;ratioP1;P1;durP2;ratioP2;P2;SDS_P1;SDS_P2;PMS_P1;PMS_P2;Temp;Humidity;BMP_temperature;BMP_pressure;BME280_temperature;BME280_humidity;BME280_pressure;Samples;Min_cycle;Max_cycle;Signal;HPM_P1;HPM_P2
2022/10/18 00:02:37;;;;;;;12.75;3.80;;;;;;;;;;6131279;23;20037;-66
2022/10/18 00:05:22;;;;;;;11.65;4.15;;;;;;;;;;6123934;23;20010;-65
2022/10/18 00:08:07;;;;;;;7.97;3.00;;;;;;;;;;6144401;23;20017;-66
2022/10/18 00:10:53;;;;;;;10.32;4.43;;;;;;;;;;6144736;23;20417;-66
2022/10/18 00:13:38;;;;;;;15.48;3.80;;;;;;;;;;6145631;23;20016;-69
2022/10/18 00:16:24;;;;;;;15.18;4.20;;;;;;;;;;6124183;23;20055;-69
2022/10/18 00:19:09;;;;;;;14.25;4.13;;;;;;;;;;6144043;23;20005;-66
2022/10/18 00:21:55;;;;;;;7.78;3.42;;;;;;;;;;6144882;23;20665;-68
2022/10/18 00:24:40;;;;;;;12.15;4.25;;;;;;;;;;6144528;23;20088;-65
2022/10/18 00:27:27;;;;;;;14.82;4.10;;;;;;;;;;6164019;23;20010;-68
2022/10/18 00:30:12;;;;;;;10.43;3.97;;;;;;;;;;6126621;23;20170;-67
2022/10/18 00:32:58;;;;;;;16.63;3.70;;;;;;;;;;6126540;23;20040;-66
2022/10/18 00:35:43;;;;;;;12.35;3.85;;;;;;;;;;6170903;23;20010;-69
2022/10/18 00:38:28;;;;;;;9.18;3.63;;;;;;;;;;6164521;23;20376;-67
2022/10/18 00:41:15;;;;;;;9.45;3.22;;;;;;;;;;6165169;23;20093;-65
2022/10/18 00:44:01;;;;;;;8.93;3.47;;;;;;;;;;6142215;23;20013;-69
2022/10/18 00:46:47;;;;;;;10.40;4.25;;;;;;;;;;6143035;23;20032;-67
2022/10/18 00:49:41;;;;;;;10.13;3.60;;;;;;;;;;6144840;23;20251;-65
2022/10/18 00:52:38;;;;;;;10.57;4.07;;;;;;;;;;6145643;23;20017;-84
2022/10/18 00:55:24;;;;;;;13.77;3.67;;;;;;;;;;6166887;23;20017;-73
2022/10/18 00:58:11;;;;;;;9.25;3.38;;;;;;;;;;6144628;23;20014;-72
2022/10/18 01:00:57;;;;;;;9.35;3.40;;;;;;;;;;6144240;23;20430;-71
2022/10/18 01:03:42;;;;;;;14.60;4.20;;;;;;;;;;6144658;23;20013;-72
2022/10/18 01:06:27;;;;;;;16.55;3.50;;;;;;;;;;6170796;23;20057;-71
2022/10/18 01:09:18;;;;;;;7.05;3.60;;;;;;;;;;6146593;23;20006;-74
2022/10/18 01:12:20;;;;;;;6.05;3.65;;;;;;;;;;6145054;23;20061;-75
2022/10/18 01:15:05;;;;;;;8.50;3.30;;;;;;;;;;6162580;23;20436;-72
2022/10/18 01:17:53;;;;;;;7.90;4.00;;;;;;;;;;6143314;23;20033;-72
2022/10/18 01:20:57;;;;;;;12.05;3.95;;;;;;;;;;6253064;22;20025;-70
2022/10/18 01:24:01;;;;;;;12.32;3.40;;;;;;;;;;6123193;23;20052;-73
2022/10/18 01:26:47;;;;;;;12.07;3.03;;;;;;;;;;6143736;23;20379;-72
2022/10/18 01:29:38;;;;;;;13.23;3.65;;;;;;;;;;6122881;23;20605;-77
2022/10/18 01:32:49;;;;;;;9.35;4.05;;;;;;;;;;6143717;23;20013;-76
2022/10/18 01:35:35;;;;;;;9.95;3.50;;;;;;;;;;6143695;23;20013;-76
2022/10/18 01:38:21;;;;;;;12.07;3.25;;;;;;;;;;6170614;23;20216;-75
2022/10/18 01:41:07;;;;;;;13.30;3.72;;;;;;;;;;6150261;23;20010;-76
2022/10/18 01:43:57;;;;;;;10.18;3.80;;;;;;;;;;6147825;23;20005;-75
2022/10/18 01:46:43;;;;;;;12.27;3.45;;;;;;;;;;6122825;23;20017;-78
2022/10/18 01:49:28;;;;;;;10.32;3.30;;;;;;;;;;6147204;23;20033;-70
2022/10/18 01:52:14;;;;;;;11.07;4.65;;;;;;;;;;6148528;23;20005;-84
2022/10/18 01:55:00;;;;;;;13.45;3.60;;;;;;;;;;6167730;23;20009;-85
2022/10/18 01:57:59;;;;;;;9.35;3.67;;;;;;;;;;6147695;23;20390;-86
2022/10/18 02:00:47;;;;;;;9.32;3.90;;;;;;;;;;6145909;23;20429;-82
2022/10/18 02:03:34;;;;;;;10.50;3.58;;;;;;;;;;6146142;23;20712;-85
2022/10/18 02:06:27;;;;;;;7.80;2.85;;;;;;;;;;6146151;23;20376;-76
2022/10/18 02:09:18;;;;;;;13.07;3.53;;;;;;;;;;6124249;23;20013;-71
2022/10/18 02:12:03;;;;;;;9.10;3.88;;;;;;;;;;6153853;23;20088;-71
2022/10/18 02:14:49;;;;;;;17.27;3.75;;;;;;;;;;6170964;23;20020;-68
2022/10/18 02:17:34;;;;;;;9.55;3.58;;;;;;;;;;6146192;23;20014;-69
2022/10/18 02:20:21;;;;;;;10.85;3.60;;;;;;;;;;6166152;23;20004;-69
2022/10/18 02:23:08;;;;;;;10.68;4.53;;;;;;;;;;6144832;23;20048;-71
2022/10/18 02:25:53;;;;;;;9.88;3.65;;;;;;;;;;6167173;23;20082;-66
2022/10/18 02:28:39;;;;;;;7.88;3.15;;;;;;;;;;6144982;23;20088;-73
2022/10/18 02:31:29;;;;;;;10.25;3.30;;;;;;;;;;6145990;23;20440;-73
2022/10/18 02:34:27;;;;;;;8.98;3.13;;;;;;;;;;6146212;23;20010;-73
2022/10/18 02:37:14;;;;;;;9.07;3.05;;;;;;;;;;6146624;23;20016;-72
2022/10/18 02:40:00;;;;;;;10.93;3.33;;;;;;;;;;6147335;23;20013;-72
2022/10/18 02:42:47;;;;;;;10.43;3.13;;;;;;;;;;6147555;23;20008;-75
2022/10/18 02:45:32;;;;;;;6.43;2.88;;;;;;;;;;6151478;23;20065;-73
2022/10/18 02:48:17;;;;;;;9.07;3.38;;;;;;;;;;6150730;23;20020;-72
2022/10/18 02:51:02;;;;;;;11.77;3.80;;;;;;;;;;6123637;23;20453;-70
2022/10/18 02:53:48;;;;;;;8.05;2.80;;;;;;;;;;6164926;23;20021;-72
2022/10/18 02:56:33;;;;;;;8.07;3.08;;;;;;;;;;6126186;23;20014;-73
2022/10/18 02:59:18;;;;;;;12.27;3.47;;;;;;;;;;6165688;23;20005;-72
2022/10/18 03:02:04;;;;;;;11.38;3.75;;;;;;;;;;6165573;23;20005;-71
2022/10/18 03:04:49;;;;;;;11.93;4.18;;;;;;;;;;6165073;23;20009;-70
2022/10/18 03:07:34;;;;;;;15.23;3.20;;;;;;;;;;6142902;23;20020;-72
2022/10/18 03:10:19;;;;;;;11.02;3.30;;;;;;;;;;6144742;23;20029;-71
2022/10/18 03:13:04;;;;;;;12.15;3.70;;;;;;;;;;6165741;23;20010;-72
2022/10/18 03:15:50;;;;;;;11.23;4.07;;;;;;;;;;6150148;23;20338;-71
2022/10/18 03:18:35;;;;;;;7.50;3.17;;;;;;;;;;6167362;23;20013;-69
2022/10/18 03:21:20;;;;;;;14.98;3.58;;;;;;;;;;6129334;23;20009;-69
2022/10/18 03:24:05;;;;;;;10.80;3.22;;;;;;;;;;6145150;23;20016;-75
2022/10/18 03:26:51;;;;;;;9.73;3.80;;;;;;;;;;6145300;23;20009;-75
2022/10/18 03:29:36;;;;;;;6.05;3.63;;;;;;;;;;6143957;23;20024;-75
2022/10/18 03:32:21;;;;;;;9.90;3.63;;;;;;;;;;6145404;23;20080;-76
2022/10/18 03:35:08;;;;;;;13.07;3.10;;;;;;;;;;6165601;23;20025;-75
2022/10/18 03:37:53;;;;;;;11.10;3.17;;;;;;;;;;6166735;23;20452;-82
2022/10/18 03:40:38;;;;;;;8.73;3.17;;;;;;;;;;6124785;23;20014;-71
2022/10/18 03:43:23;;;;;;;11.35;3.33;;;;;;;;;;6142467;23;20006;-70
2022/10/18 03:46:09;;;;;;;8.23;3.38;;;;;;;;;;6165185;23;20009;-69
2022/10/18 03:48:54;;;;;;;9.30;3.33;;;;;;;;;;6172538;23;20070;-68
2022/10/18 03:51:39;;;;;;;9.77;3.22;;;;;;;;;;6145291;23;20031;-68
2022/10/18 03:54:24;;;;;;;11.63;3.78;;;;;;;;;;6151996;23;20005;-69
2022/10/18 03:57:09;;;;;;;7.28;3.85;;;;;;;;;;6169934;23;20343;-79
2022/10/18 03:59:55;;;;;;;7.75;3.53;;;;;;;;;;6165820;23;20111;-63
2022/10/18 04:02:40;;;;;;;9.65;3.20;;;;;;;;;;6166971;23;20002;-64
2022/10/18 04:05:27;;;;;;;13.57;3.35;;;;;;;;;;6144421;23;20032;-66
2022/10/18 04:08:12;;;;;;;10.55;4.18;;;;;;;;;;6166319;23;20318;-65
2022/10/18 04:10:58;;;;;;;15.35;2.97;;;;;;;;;;6145679;23;20006;-65
2022/10/18 04:13:43;;;;;;;10.75;4.00;;;;;;;;;;6166659;23;20013;-68
2022/10/18 04:16:28;;;;;;;9.35;3.38;;;;;;;;;;6166419;23;20020;-71
2022/10/18 04:19:13;;;;;;;23.63;5.10;;;;;;;;;;6170229;23;20018;-72
2022/10/18 04:21:58;;;;;;;9.43;3.15;;;;;;;;;;6148912;23;20006;-74
2022/10/18 04:24:44;;;;;;;6.05;3.05;;;;;;;;;;6168203;23;20289;-72
2022/10/18 04:27:29;;;;;;;8.25;3.00;;;;;;;;;;6169304;23;20020;-75
2022/10/18 04:30:14;;;;;;;5.85;3.08;;;;;;;;;;6147738;23;20023;-73
2022/10/18 04:32:59;;;;;;;6.05;3.22;;;;;;;;;;6167796;23;20017;-69
2022/10/18 04:35:45;;;;;;;15.98;4.50;;;;;;;;;;6146036;23;20016;-74
2022/10/18 04:38:30;;;;;;;13.98;3.58;;;;;;;;;;6167472;23;20347;-73
2022/10/18 04:41:15;;;;;;;10.30;3.97;;;;;;;;;;6165205;23;20005;-71
2022/10/18 04:44:01;;;;;;;12.00;3.50;;;;;;;;;;6145473;23;20013;-73
2022/10/18 04:46:46;;;;;;;9.23;3.22;;;;;;;;;;6165449;23;20013;-72
2022/10/18 04:49:31;;;;;;;10.57;3.50;;;;;;;;;;6124665;23;20006;-74
2022/10/18 04:52:16;;;;;;;7.30;3.40;;;;;;;;;;6172034;23;20009;-75
2022/10/18 04:55:02;;;;;;;11.25;3.35;;;;;;;;;;6163113;23;20441;-73
2022/10/18 04:57:47;;;;;;;9.23;3.50;;;;;;;;;;6166998;23;20037;-71
2022/10/18 05:00:32;;;;;;;6.80;3.28;;;;;;;;;;6168587;23;20059;-72
2022/10/18 05:03:17;;;;;;;18.55;3.40;;;;;;;;;;6125181;23;20044;-72
2022/10/18 05:06:04;;;;;;;12.77;4.05;;;;;;;;;;6146332;23;20045;-77
2022/10/18 05:08:49;;;;;;;7.85;3.22;;;;;;;;;;6124632;23;20009;-72
2022/10/18 05:11:34;;;;;;;8.93;2.88;;;;;;;;;;6165842;23;20001;-79
2022/10/18 05:14:22;;;;;;;9.38;3.42;;;;;;;;;;6124832;23;20023;-72
2022/10/18 05:17:08;;;;;;;9.27;3.42;;;;;;;;;;6144733;23;20006;-71
2022/10/18 05:19:53;;;;;;;15.43;4.32;;;;;;;;;;6165410;23;20077;-73
2022/10/18 05:22:38;;;;;;;10.85;4.30;;;;;;;;;;6164617;23;20010;-70
2022/10/18 05:25:23;;;;;;;12.35;4.22;;;;;;;;;;6130832;23;20043;-72
2022/10/18 05:28:09;;;;;;;14.52;4.15;;;;;;;;;;6166644;23;20227;-68
2022/10/18 05:30:54;;;;;;;14.25;3.90;;;;;;;;;;6148654;23;20057;-74
2022/10/18 05:33:40;;;;;;;13.93;5.07;;;;;;;;;;6149094;23;20005;-73
2022/10/18 05:36:25;;;;;;;9.45;3.95;;;;;;;;;;6147086;23;20017;-72
2022/10/18 05:39:10;;;;;;;8.45;4.20;;;;;;;;;;6168049;23;20695;-72
2022/10/18 05:41:56;;;;;;;9.05;3.72;;;;;;;;;;6143332;23;20006;-76
2022/10/18 05:44:42;;;;;;;8.50;3.88;;;;;;;;;;6165785;23;20021;-73
2022/10/18 05:47:27;;;;;;;8.35;3.97;;;;;;;;;;6167251;23;20009;-72
2022/10/18 05:50:12;;;;;;;10.55;4.85;;;;;;;;;;6146078;23;20064;-72
2022/10/18 05:52:57;;;;;;;8.90;3.92;;;;;;;;;;6127201;23;20441;-72
2022/10/18 05:55:43;;;;;;;18.33;4.78;;;;;;;;;;6173243;23;20048;-71
2022/10/18 05:58:28;;;;;;;11.77;4.50;;;;;;;;;;6127094;23;20013;-72
2022/10/18 06:01:13;;;;;;;13.80;3.85;;;;;;;;;;6147248;23;20005;-74
2022/10/18 06:03:58;;;;;;;11.70;4.32;;;;;;;;;;6172233;23;20051;-70
2022/10/18 06:06:44;;;;;;;11.57;3.63;;;;;;;;;;6167117;23;20088;-69
2022/10/18 06:09:29;;;;;;;13.35;4.53;;;;;;;;;;6166512;23;20002;-67
2022/10/18 06:12:14;;;;;;;14.63;4.93;;;;;;;;;;6167590;23;20027;-67
2022/10/18 06:14:59;;;;;;;12.20;4.82;;;;;;;;;;6166422;23;20104;-67
2022/10/18 06:17:45;;;;;;;12.32;3.90;;;;;;;;;;6146837;23;20017;-69
2022/10/18 06:20:30;;;;;;;11.38;4.20;;;;;;;;;;6146416;23;20088;-67
2022/10/18 06:23:15;;;;;;;17.30;4.35;;;;;;;;;;6146426;23;20033;-69
2022/10/18 06:26:01;;;;;;;9.80;3.92;;;;;;;;;;6146730;23;20013;-67
2022/10/18 06:28:46;;;;;;;11.68;4.22;;;;;;;;;;6133415;23;20015;-69
2022/10/18 06:31:31;;;;;;;8.88;3.88;;;;;;;;;;6167381;23;20048;-69
2022/10/18 06:34:17;;;;;;;10.30;3.75;;;;;;;;;;6166794;23;20005;-69
2022/10/18 06:37:03;;;;;;;10.82;3.72;;;;;;;;;;6173410;23;20266;-68
2022/10/18 06:39:48;;;;;;;11.48;4.78;;;;;;;;;;6145720;23;20013;-68
2022/10/18 06:42:34;;;;;;;11.25;5.45;;;;;;;;;;6146310;23;20001;-70
2022/10/18 06:45:19;;;;;;;12.05;4.65;;;;;;;;;;6145590;22;20055;-65
2022/10/18 06:48:04;;;;;;;6.80;3.55;;;;;;;;;;6166719;23;20379;-66
2022/10/18 06:50:50;;;;;;;11.48;4.95;;;;;;;;;;6145944;23;20471;-66
2022/10/18 06:53:37;;;;;;;13.93;4.57;;;;;;;;;;6165765;23;20428;-67
2022/10/18 06:56:22;;;;;;;9.05;4.63;;;;;;;;;;6166014;22;20550;-68
2022/10/18 06:59:07;;;;;;;9.65;4.65;;;;;;;;;;6148738;23;20012;-65
2022/10/18 07:01:52;;;;;;;13.38;4.35;;;;;;;;;;6169220;23;20013;-68
2022/10/18 07:04:38;;;;;;;10.73;3.60;;;;;;;;;;6145629;23;20063;-66
2022/10/18 07:07:23;;;;;;;12.38;5.05;;;;;;;;;;6170193;23;20009;-66
2022/10/18 07:10:08;;;;;;;15.88;4.50;;;;;;;;;;6148503;23;20039;-71
2022/10/18 07:12:53;;;;;;;11.40;4.20;;;;;;;;;;6138825;23;20429;-65
2022/10/18 07:15:38;;;;;;;14.90;4.72;;;;;;;;;;6144765;23;20010;-65
2022/10/18 07:18:24;;;;;;;18.15;4.38;;;;;;;;;;6166166;23;20004;-66
2022/10/18 07:21:11;;;;;;;11.95;3.95;;;;;;;;;;6166461;23;20016;-66
2022/10/18 07:23:56;;;;;;;12.43;4.05;;;;;;;;;;6144932;23;20014;-69
2022/10/18 07:26:41;;;;;;;9.00;3.80;;;;;;;;;;6145189;23;20005;-67
2022/10/18 07:29:27;;;;;;;11.10;3.92;;;;;;;;;;6165400;23;20002;-68
2022/10/18 07:32:12;;;;;;;10.63;4.57;;;;;;;;;;6173870;23;20012;-68
2022/10/18 07:34:57;;;;;;;6.93;4.22;;;;;;;;;;6165598;23;20021;-69
2022/10/18 07:37:43;;;;;;;18.77;4.20;;;;;;;;;;6144603;23;20010;-66
2022/10/18 07:40:28;;;;;;;9.25;4.57;;;;;;;;;;6173776;23;20063;-70
2022/10/18 07:43:13;;;;;;;8.00;3.95;;;;;;;;;;6124129;23;20100;-70
2022/10/18 07:46:00;;;;;;;9.85;3.67;;;;;;;;;;6166489;23;20139;-74
2022/10/18 07:48:45;;;;;;;8.35;3.60;;;;;;;;;;6145948;23;20444;-72
2022/10/18 07:51:31;;;;;;;10.80;3.92;;;;;;;;;;6166459;23;20010;-73
2022/10/18 07:54:17;;;;;;;8.02;3.40;;;;;;;;;;6165900;23;20018;-74
2022/10/18 07:57:03;;;;;;;12.27;3.78;;;;;;;;;;6145347;22;20084;-74
2022/10/18 07:59:54;;;;;;;13.25;4.18;;;;;;;;;;6145109;23;20005;-74
2022/10/18 08:02:40;;;;;;;7.47;3.03;;;;;;;;;;6256408;22;20013;-75
2022/10/18 08:05:26;;;;;;;7.50;3.20;;;;;;;;;;6169183;23;20005;-74
2022/10/18 08:08:11;;;;;;;8.98;3.45;;;;;;;;;;6124886;23;20303;-70
2022/10/18 08:11:04;;;;;;;11.35;3.88;;;;;;;;;;6147729;23;20036;-71
2022/10/18 08:13:50;;;;;;;11.02;4.43;;;;;;;;;;6168330;23;20463;-71
2022/10/18 08:16:35;;;;;;;11.07;4.57;;;;;;;;;;6124741;23;20010;-75
2022/10/18 08:19:20;;;;;;;24.42;4.93;;;;;;;;;;6145076;23;20307;-69
2022/10/18 08:22:05;;;;;;;16.20;3.97;;;;;;;;;;6144356;23;20009;-67
2022/10/18 08:24:50;;;;;;;9.07;4.13;;;;;;;;;;6164322;23;20016;-67
2022/10/18 08:27:35;;;;;;;5.70;3.40;;;;;;;;;;6166088;23;20093;-67
2022/10/18 08:30:22;;;;;;;12.73;3.65;;;;;;;;;;6144557;23;20495;-67
2022/10/18 08:33:07;;;;;;;9.82;3.20;;;;;;;;;;6253974;22;20005;-68
2022/10/18 08:35:53;;;;;;;7.18;3.22;;;;;;;;;;6173050;23;20064;-72
2022/10/18 08:38:39;;;;;;;8.80;3.30;;;;;;;;;;6144539;23;20002;-72
2022/10/18 08:41:37;;;;;;;9.68;3.42;;;;;;;;;;6144835;23;20016;-72
2022/10/18 08:44:32;;;;;;;7.05;3.67;;;;;;;;;;6152846;23;20059;-71
2022/10/18 08:47:17;;;;;;;4.93;3.03;;;;;;;;;;6166492;23;20062;-72
2022/10/18 08:50:10;;;;;;;8.80;3.20;;;;;;;;;;6146007;23;20047;-72
2022/10/18 08:53:04;;;;;;;6.10;3.10;;;;;;;;;;6144859;23;20005;-62
2022/10/18 08:56:20;;;;;;;7.35;2.88;;;;;;;;;;6144737;23;20040;-68
2022/10/18 08:59:12;;;;;;;8.68;3.40;;;;;;;;;;6126175;23;20019;-68
2022/10/18 09:02:11;;;;;;;5.68;2.88;;;;;;;;;;6146893;23;20006;-71
2022/10/18 09:05:02;;;;;;;9.88;3.65;;;;;;;;;;6167492;23;20433;-69
2022/10/18 09:07:50;;;;;;;4.90;2.60;;;;;;;;;;6173288;23;20005;-68
2022/10/18 09:10:54;;;;;;;6.40;3.30;;;;;;;;;;6256070;22;20044;-71
2022/10/18 09:13:39;;;;;;;6.65;3.00;;;;;;;;;;6146729;23;20010;-68
2022/10/18 09:16:33;;;;;;;3.85;2.72;;;;;;;;;;6153954;23;20022;-67
2022/10/18 09:19:28;;;;;;;7.97;3.13;;;;;;;;;;6147219;23;20006;-67
2022/10/18 09:22:15;;;;;;;11.65;3.30;;;;;;;;;;6146897;23;20059;-68
2022/10/18 09:25:13;;;;;;;8.60;2.75;;;;;;;;;;6146236;23;20005;-69
2022/10/18 09:28:18;;;;;;;12.50;3.17;;;;;;;;;;6146949;23;20432;-65
2022/10/18 09:31:10;;;;;;;6.45;2.67;;;;;;;;;;6145817;23;20016;-68
2022/10/18 09:33:57;;;;;;;7.20;3.17;;;;;;;;;;6165940;23;20009;-68
2022/10/18 09:36:44;;;;;;;7.78;2.95;;;;;;;;;;6166429;23;20011;-69
2022/10/18 09:39:31;;;;;;;10.35;3.00;;;;;;;;;;6151349;23;20021;-68
2022/10/18 09:42:27;;;;;;;9.35;2.70;;;;;;;;;;6168764;23;20065;-70
2022/10/18 09:45:12;;;;;;;8.00;2.70;;;;;;;;;;6146606;23;20303;-67
2022/10/18 09:48:03;;;;;;;9.48;3.13;;;;;;;;;;6151903;23;20028;-70
2022/10/18 09:50:54;;;;;;;7.53;2.78;;;;;;;;;;6142887;23;20323;-66
2022/10/18 09:53:43;;;;;;;8.88;3.05;;;;;;;;;;6146597;23;20096;-67
2022/10/18 09:56:44;;;;;;;11.23;3.08;;;;;;;;;;6146766;23;20460;-69
2022/10/18 09:59:38;;;;;;;11.38;5.15;;;;;;;;;;6145206;23;20006;-68
2022/10/18 10:02:24;;;;;;;7.55;3.13;;;;;;;;;;6142923;23;20046;-68
2022/10/18 10:05:12;;;;;;;5.28;2.60;;;;;;;;;;6125328;23;20036;-70
2022/10/18 10:07:58;;;;;;;8.95;2.90;;;;;;;;;;6165988;23;20009;-75
2022/10/18 10:10:45;;;;;;;8.23;2.70;;;;;;;;;;6169495;22;20312;-76
2022/10/18 10:13:31;;;;;;;6.57;2.85;;;;;;;;;;6170661;23;20361;-75
2022/10/18 10:16:16;;;;;;;9.70;3.40;;;;;;;;;;6165886;23;20084;-76
2022/10/18 10:19:01;;;;;;;6.05;3.13;;;;;;;;;;6169895;23;20025;-75
2022/10/18 10:21:48;;;;;;;10.90;3.70;;;;;;;;;;6169689;23;20009;-74
2022/10/18 10:24:36;;;;;;;10.68;3.13;;;;;;;;;;6142115;23;20106;-78
2022/10/18 10:27:32;;;;;;;7.32;2.90;;;;;;;;;;6142394;23;20009;-72
2022/10/18 10:30:25;;;;;;;9.13;3.22;;;;;;;;;;6138047;23;20044;-72
2022/10/18 10:33:29;;;;;;;6.60;2.75;;;;;;;;;;6144388;23;20435;-72
2022/10/18 10:36:16;;;;;;;7.90;3.15;;;;;;;;;;6144601;23;20005;-72
2022/10/18 10:39:04;;;;;;;9.95;3.58;;;;;;;;;;6145293;23;20005;-71
2022/10/18 10:41:57;;;;;;;8.35;3.08;;;;;;;;;;6125600;23;20449;-79
2022/10/18 10:44:52;;;;;;;7.40;3.45;;;;;;;;;;6153528;23;20001;-76
2022/10/18 10:47:37;;;;;;;7.07;3.05;;;;;;;;;;6163679;23;20009;-75
2022/10/18 10:50:27;;;;;;;8.95;3.17;;;;;;;;;;6165781;23;20088;-73
2022/10/18 10:53:25;;;;;;;8.05;2.97;;;;;;;;;;6153630;23;20005;-76
2022/10/18 10:56:21;;;;;;;7.23;3.33;;;;;;;;;;6145573;23;20020;-76
2022/10/18 10:59:14;;;;;;;6.78;3.15;;;;;;;;;;6165606;23;20024;-69
2022/10/18 11:02:17;;;;;;;7.03;3.20;;;;;;;;;;6166140;22;20044;-68
2022/10/18 11:05:21;;;;;;;8.88;3.15;;;;;;;;;;6145914;23;20088;-70
2022/10/18 11:08:09;;;;;;;9.45;3.45;;;;;;;;;;6145061;23;20328;-70
2022/10/18 11:11:16;;;;;;;10.35;3.55;;;;;;;;;;6145601;23;20048;-68
2022/10/18 11:14:05;;;;;;;7.00;3.33;;;;;;;;;;6166469;23;20006;-69
2022/10/18 11:16:57;;;;;;;7.18;3.20;;;;;;;;;;6171564;23;20333;-70
2022/10/18 11:19:52;;;;;;;6.05;3.08;;;;;;;;;;6145089;23;20405;-68
2022/10/18 11:22:39;;;;;;;10.77;3.75;;;;;;;;;;6144380;23;20009;-68
2022/10/18 11:25:30;;;;;;;14.93;3.83;;;;;;;;;;6172990;23;20013;-67
2022/10/18 11:28:29;;;;;;;16.55;3.97;;;;;;;;;;6166002;23;20063;-67
2022/10/18 11:31:18;;;;;;;10.80;2.70;;;;;;;;;;6145019;23;20425;-67
2022/10/18 11:34:09;;;;;;;8.60;2.72;;;;;;;;;;6144329;23;20006;-68
2022/10/18 11:37:01;;;;;;;7.43;3.45;;;;;;;;;;6145363;23;20045;-76
2022/10/18 11:40:05;;;;;;;9.88;3.33;;;;;;;;;;6144744;23;20140;-69
2022/10/18 11:42:56;;;;;;;7.47;3.55;;;;;;;;;;6144114;23;20460;-70
2022/10/18 11:45:45;;;;;;;9.10;3.75;;;;;;;;;;6123977;23;20012;-68
2022/10/18 11:48:45;;;;;;;11.10;3.47;;;;;;;;;;6153097;23;19997;-66
2022/10/18 11:51:30;;;;;;;6.18;3.45;;;;;;;;;;6145633;23;20024;-67
2022/10/18 11:54:21;;;;;;;8.02;3.50;;;;;;;;;;6141626;23;20066;-81
2022/10/18 11:57:17;;;;;;;9.60;3.03;;;;;;;;;;6152560;23;20013;-70
2022/10/18 12:00:03;;;;;;;12.05;4.65;;;;;;;;;;6165963;23;20055;-70
2022/10/18 12:02:57;;;;;;;11.77;3.88;;;;;;;;;;6124864;23;20431;-72
2022/10/18 12:05:44;;;;;;;9.55;3.42;;;;;;;;;;6145543;23;20012;-70
2022/10/18 12:08:33;;;;;;;9.68;3.17;;;;;;;;;;6144457;23;20014;-72
2022/10/18 12:11:21;;;;;;;9.65;3.20;;;;;;;;;;6125188;23;20385;-72
2022/10/18 12:14:12;;;;;;;6.35;2.83;;;;;;;;;;6166026;22;20453;-75
2022/10/18 12:17:02;;;;;;;23.83;4.25;;;;;;;;;;6144879;23;20333;-73
2022/10/18 12:19:48;;;;;;;8.15;3.20;;;;;;;;;;6172006;23;20036;-72
2022/10/18 12:22:35;;;;;;;5.57;3.13;;;;;;;;;;6145189;23;20451;-69
2022/10/18 12:25:21;;;;;;;8.38;3.30;;;;;;;;;;6165668;23;20002;-69
2022/10/18 12:28:12;;;;;;;10.02;3.53;;;;;;;;;;6150981;23;20009;-69
2022/10/18 12:31:01;;;;;;;5.40;2.50;;;;;;;;;;6144560;23;20005;-69
2022/10/18 12:33:49;;;;;;;12.75;2.67;;;;;;;;;;6124808;23;20373;-67
2022/10/18 12:36:40;;;;;;;8.35;3.72;;;;;;;;;;6165517;23;20051;-66
2022/10/18 12:39:26;;;;;;;6.53;1.75;;;;;;;;;;6143960;23;20002;-65
2022/10/18 12:42:22;;;;;;;5.82;1.92;;;;;;;;;;6165869;23;20417;-65
2022/10/18 12:45:26;;;;;;;5.28;2.10;;;;;;;;;;6145136;23;20005;-75
2022/10/18 12:48:26;;;;;;;6.07;2.88;;;;;;;;;;6144895;23;20002;-75
2022/10/18 12:51:16;;;;;;;5.10;1.95;;;;;;;;;;6149163;23;20033;-81
2022/10/18 12:54:01;;;;;;;3.85;2.03;;;;;;;;;;6147083;23;20002;-66
2022/10/18 12:56:47;;;;;;;3.97;1.98;;;;;;;;;;6144377;23;20041;-69
2022/10/18 12:59:32;;;;;;;3.65;1.73;;;;;;;;;;6169533;23;20083;-68
2022/10/18 13:02:19;;;;;;;5.65;1.95;;;;;;;;;;6147108;23;20088;-66
2022/10/18 13:05:24;;;;;;;5.07;1.75;;;;;;;;;;6144522;23;20006;-66
2022/10/18 13:08:28;;;;;;;5.97;2.00;;;;;;;;;;6145008;23;20005;-80
2022/10/18 13:11:29;;;;;;;4.22;2.03;;;;;;;;;;6253639;22;20002;-73
2022/10/18 13:14:34;;;;;;;5.85;2.50;;;;;;;;;;6144330;23;20005;-63
2022/10/18 13:17:19;;;;;;;8.32;2.58;;;;;;;;;;6143846;23;20095;-64
2022/10/18 13:20:21;;;;;;;5.10;2.55;;;;;;;;;;6145066;23;20005;-64
2022/10/18 13:23:26;;;;;;;8.40;2.53;;;;;;;;;;6257376;22;20065;-65
2022/10/18 13:26:14;;;;;;;7.55;2.13;;;;;;;;;;6165366;23;20430;-65
2022/10/18 13:28:59;;;;;;;6.75;2.80;;;;;;;;;;6144966;23;20002;-80
2022/10/18 13:32:14;;;;;;;6.10;2.40;;;;;;;;;;6148838;23;20014;-73
2022/10/18 13:34:59;;;;;;;9.98;2.65;;;;;;;;;;6171180;23;20006;-65
2022/10/18 13:37:56;;;;;;;8.50;3.30;;;;;;;;;;6165176;23;20009;-64
2022/10/18 13:40:41;;;;;;;5.88;2.00;;;;;;;;;;6164856;23;20095;-63
2022/10/18 13:43:45;;;;;;;7.72;2.20;;;;;;;;;;6144420;23;20016;-65
2022/10/18 13:46:33;;;;;;;5.97;2.05;;;;;;;;;;6145855;23;20013;-77
2022/10/18 13:49:22;;;;;;;3.67;1.73;;;;;;;;;;6126042;23;20421;-73
2022/10/18 13:52:26;;;;;;;6.63;2.80;;;;;;;;;;6146655;23;20001;-72
2022/10/18 13:55:30;;;;;;;9.25;2.30;;;;;;;;;;6150622;23;20002;-71
2022/10/18 13:58:18;;;;;;;2.67;1.80;;;;;;;;;;6146896;23;20084;-71
2022/10/18 14:01:29;;;;;;;3.92;1.90;;;;;;;;;;6146629;23;20012;-73
2022/10/18 14:04:33;;;;;;;6.68;1.92;;;;;;;;;;6152044;23;20005;-71
2022/10/18 14:07:18;;;;;;;4.55;1.90;;;;;;;;;;6145898;23;20086;-70
2022/10/18 14:10:03;;;;;;;3.33;1.65;;;;;;;;;;6254839;22;20313;-69
2022/10/18 14:12:53;;;;;;;5.10;1.38;;;;;;;;;;6167054;23;20485;-69
2022/10/18 14:15:40;;;;;;;5.60;1.90;;;;;;;;;;6167795;23;20012;-70
2022/10/18 14:18:29;;;;;;;6.70;2.05;;;;;;;;;;6145246;23;20013;-70
2022/10/18 14:21:18;;;;;;;5.07;2.38;;;;;;;;;;6146785;23;20145;-68
2022/10/18 14:24:09;;;;;;;6.90;2.03;;;;;;;;;;6146959;23;20001;-79
2022/10/18 14:27:11;;;;;;;9.73;2.40;;;;;;;;;;6170012;23;20436;-69
2022/10/18 14:30:13;;;;;;;4.15;2.15;;;;;;;;;;6168283;23;20011;-69
2022/10/18 14:32:59;;;;;;;7.15;2.72;;;;;;;;;;6145482;23;20005;-68
2022/10/18 14:35:56;;;;;;;5.18;2.67;;;;;;;;;;6171389;23;20024;-69
2022/10/18 14:39:02;;;;;;;6.78;2.20;;;;;;;;;;6166558;23;20332;-69
2022/10/18 14:41:51;;;;;;;6.10;2.47;;;;;;;;;;6146217;23;20005;-69
2022/10/18 14:44:36;;;;;;;;;;;;;;;;;;6146871;23;20358;-63
2022/10/18 14:47:23;;;;;;;7.97;3.15;;;;;;;;;;6146111;23;19957;-64
2022/10/18 14:50:19;;;;;;;5.60;2.22;;;;;;;;;;6124802;23;20017;-63
2022/10/18 14:53:05;;;;;;;8.55;2.75;;;;;;;;;;6166370;23;20053;-63
2022/10/18 14:55:52;;;;;;;5.15;2.92;;;;;;;;;;6145264;23;20009;-63
2022/10/18 14:58:40;;;;;;;5.35;2.58;;;;;;;;;;6168422;22;20014;-65
2022/10/18 15:01:28;;;;;;;6.20;2.50;;;;;;;;;;6170213;23;20005;-75
2022/10/18 15:04:14;;;;;;;4.57;2.50;;;;;;;;;;6146123;23;20414;-76
2022/10/18 15:07:00;;;;;;;2.70;2.03;;;;;;;;;;6167676;23;20017;-74
2022/10/18 15:09:46;;;;;;;7.82;2.80;;;;;;;;;;6150557;23;20009;-81
2022/10/18 15:12:32;;;;;;;3.72;2.08;;;;;;;;;;6145365;23;20050;-76
2022/10/18 15:15:19;;;;;;;8.23;2.47;;;;;;;;;;6166350;23;20333;-74
2022/10/18 15:18:05;;;;;;;6.75;2.90;;;;;;;;;;6145283;23;20095;-63
2022/10/18 15:21:29;;;;;;;3.70;2.20;;;;;;;;;;6145682;23;20020;-75
2022/10/18 15:24:19;;;;;;;4.75;2.05;;;;;;;;;;6187739;23;20011;-76
2022/10/18 15:27:10;;;;;;;6.72;2.00;;;;;;;;;;6186657;23;20008;-80
2022/10/18 15:29:55;;;;;;;6.47;2.63;;;;;;;;;;6167249;23;20012;-78
2022/10/18 15:32:46;;;;;;;7.75;3.67;;;;;;;;;;6194062;23;20044;-77
2022/10/18 15:35:33;;;;;;;3.97;2.58;;;;;;;;;;6187161;23;20001;-74
2022/10/18 15:38:26;;;;;;;6.55;2.65;;;;;;;;;;6187480;23;20083;-74
2022/10/18 15:41:29;;;;;;;5.00;2.42;;;;;;;;;;6215372;23;20314;-71
2022/10/18 15:44:27;;;;;;;4.57;2.35;;;;;;;;;;6187237;23;20055;-72
2022/10/18 15:47:12;;;;;;;5.32;2.40;;;;;;;;;;6187168;23;20031;-74
2022/10/18 15:49:57;;;;;;;3.90;2.60;;;;;;;;;;6187594;23;20471;-74
2022/10/18 15:52:43;;;;;;;6.72;2.58;;;;;;;;;;6208495;23;20012;-71
2022/10/18 15:55:28;;;;;;;5.30;2.65;;;;;;;;;;6156621;23;20025;-63
2022/10/18 15:58:25;;;;;;;7.65;3.88;;;;;;;;;;6145294;23;20032;-74
2022/10/18 16:01:15;;;;;;;7.53;3.00;;;;;;;;;;6146198;23;20020;-74
2022/10/18 16:04:05;;;;;;;6.68;2.85;;;;;;;;;;6152011;23;20009;-77
2022/10/18 16:06:51;;;;;;;10.13;2.60;;;;;;;;;;6145629;23;20012;-76
2022/10/18 16:09:36;;;;;;;8.80;3.35;;;;;;;;;;6255342;22;20432;-77
2022/10/18 16:12:22;;;;;;;5.32;2.70;;;;;;;;;;6152897;23;20047;-69
2022/10/18 16:15:07;;;;;;;4.30;2.42;;;;;;;;;;6166789;23;20063;-70
2022/10/18 16:17:52;;;;;;;7.20;2.50;;;;;;;;;;6142869;23;20021;-66
2022/10/18 16:20:38;;;;;;;6.47;2.67;;;;;;;;;;6125045;22;20021;-63
2022/10/18 16:23:24;;;;;;;7.22;2.60;;;;;;;;;;6166569;23;20009;-64
2022/10/18 16:26:10;;;;;;;12.32;3.33;;;;;;;;;;6146065;23;19997;-64
2022/10/18 16:28:56;;;;;;;10.77;2.83;;;;;;;;;;6145317;23;20260;-64
2022/10/18 16:31:41;;;;;;;17.10;2.90;;;;;;;;;;6145993;23;20315;-71
2022/10/18 16:34:27;;;;;;;9.07;3.25;;;;;;;;;;6167184;23;20299;-68
2022/10/18 16:37:12;;;;;;;7.15;3.28;;;;;;;;;;6128621;23;20329;-68
2022/10/18 16:39:57;;;;;;;7.30;3.60;;;;;;;;;;6122867;23;20002;-67
2022/10/18 16:42:42;;;;;;;11.18;4.28;;;;;;;;;;6126078;23;20064;-69
2022/10/18 16:45:28;;;;;;;6.95;2.58;;;;;;;;;;6149420;23;20055;-69
2022/10/18 16:48:17;;;;;;;11.73;4.15;;;;;;;;;;6165508;23;20002;-69